sensor_id;sensor_type;location;lat;lon;timestamp;pressure;altitude;pressure_sealevel;temperature;humidity
73692;BME280;61996;49.910;35.562;2023-04-25T00:00:40;98956.38;;;21.24;39.20
73692;BME280;61996;49.910;35.562;2023-04-25T00:03:42;98958.03;;;21.25;39.15
73692;BME280;61996;49.910;35.562;2023-04-25T00:06:47;98955.72;;;21.22;39.22
73692;BME280;61996;49.910;35.562;2023-04-25T00:09:50;98958.41;;;21.22;39.23
73692;BME280;61996;49.910;35.562;2023-04-25T00:12:53;98958.03;;;21.25;39.19
73692;BME280;61996;49.910;35.562;2023-04-25T00:15:56;98948.84;;;21.20;39.36
73692;BME280;61996;49.910;35.562;2023-04-25T00:18:59;98947.38;;;21.17;39.29
73692;BME280;61996;49.910;35.562;2023-04-25T00:22:04;98944.84;;;21.24;39.33
73692;BME280;61996;49.910;35.562;2023-04-25T00:25:07;98943.34;;;21.13;39.32
73692;BME280;61996;49.910;35.562;2023-04-25T00:28:10;98934.00;;;21.17;39.32
73692;BME280;61996;49.910;35.562;2023-04-25T00:31:14;98938.16;;;21.20;39.23
73692;BME280;61996;49.910;35.562;2023-04-25T00:34:18;98939.31;;;21.25;39.60
73692;BME280;61996;49.910;35.562;2023-04-25T00:37:23;98931.94;;;21.27;39.14
73692;BME280;61996;49.910;35.562;2023-04-25T00:40:26;98928.28;;;21.20;39.23
73692;BME280;61996;49.910;35.562;2023-04-25T00:43:28;98930.81;;;21.22;39.17
73692;BME280;61996;49.910;35.562;2023-04-25T00:46:32;98923.97;;;21.19;39.48
73692;BME280;61996;49.910;35.562;2023-04-25T00:49:36;98926.63;;;21.19;39.19
73692;BME280;61996;49.910;35.562;2023-04-25T00:52:41;98923.44;;;21.24;39.25
73692;BME280;61996;49.910;35.562;2023-04-25T00:55:45;98924.66;;;21.21;39.37
73692;BME280;61996;49.910;35.562;2023-04-25T00:58:48;98928.16;;;21.22;39.26
73692;BME280;61996;49.910;35.562;2023-04-25T01:01:52;98920.81;;;21.16;39.43
73692;BME280;61996;49.910;35.562;2023-04-25T01:04:55;98920.63;;;21.17;39.30
73692;BME280;61996;49.910;35.562;2023-04-25T01:07:59;98918.63;;;21.11;39.40
73692;BME280;61996;49.910;35.562;2023-04-25T01:11:02;98916.28;;;21.16;39.40
73692;BME280;61996;49.910;35.562;2023-04-25T01:14:06;98910.97;;;21.08;39.49
73692;BME280;61996;49.910;35.562;2023-04-25T01:17:08;98914.28;;;21.18;39.51
73692;BME280;61996;49.910;35.562;2023-04-25T01:20:11;98901.41;;;21.14;39.52
73692;BME280;61996;49.910;35.562;2023-04-25T01:23:17;98899.06;;;21.19;39.39
73692;BME280;61996;49.910;35.562;2023-04-25T01:26:20;98898.56;;;21.23;39.53
73692;BME280;61996;49.910;35.562;2023-04-25T01:29:23;98902.09;;;21.16;39.60
73692;BME280;61996;49.910;35.562;2023-04-25T01:32:26;98898.25;;;21.10;39.67
73692;BME280;61996;49.910;35.562;2023-04-25T01:35:29;98891.03;;;21.19;39.36
73692;BME280;61996;49.910;35.562;2023-04-25T01:38:34;98897.41;;;21.18;39.30
73692;BME280;61996;49.910;35.562;2023-04-25T01:41:37;98900.44;;;21.15;39.16
73692;BME280;61996;49.910;35.562;2023-04-25T01:44:40;98894.56;;;21.11;39.48
73692;BME280;61996;49.910;35.562;2023-04-25T01:47:43;98890.56;;;21.15;39.51
73692;BME280;61996;49.910;35.562;2023-04-25T01:50:50;98893.88;;;21.17;39.65
73692;BME280;61996;49.910;35.562;2023-04-25T01:53:54;98897.41;;;21.18;39.59
73692;BME280;61996;49.910;35.562;2023-04-25T01:56:59;98886.53;;;21.19;39.65
73692;BME280;61996;49.910;35.562;2023-04-25T02:00:04;98881.19;;;21.19;39.57
73692;BME280;61996;49.910;35.562;2023-04-25T02:03:08;98878.84;;;21.16;39.46
73692;BME280;61996;49.910;35.562;2023-04-25T02:06:11;98878.84;;;21.16;39.55
73692;BME280;61996;49.910;35.562;2023-04-25T02:09:15;98887.38;;;21.12;39.58
73692;BME280;61996;49.910;35.562;2023-04-25T02:12:17;98884.84;;;21.18;39.29
73692;BME280;61996;49.910;35.562;2023-04-25T02:15:20;98884.22;;;21.16;39.55
73692;BME280;61996;49.910;35.562;2023-04-25T02:18:23;98879.50;;;21.18;39.26
73692;BME280;61996;49.910;35.562;2023-04-25T02:21:27;98883.38;;;21.16;39.38
73692;BME280;61996;49.910;35.562;2023-04-25T02:24:32;98873.00;;;21.13;39.45
73692;BME280;61996;49.910;35.562;2023-04-25T02:27:36;98878.84;;;21.16;39.33
73692;BME280;61996;49.910;35.562;2023-04-25T02:30:38;98873.34;;;21.18;39.63
73692;BME280;61996;49.910;35.562;2023-04-25T02:33:41;98877.34;;;21.14;39.50
73692;BME280;61996;49.910;35.562;2023-04-25T02:36:44;98883.91;;;21.03;39.47
73692;BME280;61996;49.910;35.562;2023-04-25T02:39:48;98896.41;;;21.11;39.49
73692;BME280;61996;49.910;35.562;2023-04-25T02:42:51;98883.22;;;21.09;39.73
73692;BME280;61996;49.910;35.562;2023-04-25T02:45:54;98888.25;;;21.04;39.59
73692;BME280;61996;49.910;35.562;2023-04-25T02:48:57;98889.56;;;21.00;39.80
73692;BME280;61996;49.910;35.562;2023-04-25T02:51:59;98894.09;;;21.07;39.63
73692;BME280;61996;49.910;35.562;2023-04-25T02:55:04;98897.75;;;21.06;39.65
73692;BME280;61996;49.910;35.562;2023-04-25T02:58:07;98893.91;;;21.09;40.09
73692;BME280;61996;49.910;35.562;2023-04-25T03:01:10;98896.41;;;21.11;39.63
73692;BME280;61996;49.910;35.562;2023-04-25T03:04:12;98893.25;;;21.07;39.71
73692;BME280;61996;49.910;35.562;2023-04-25T03:07:15;98893.91;;;21.09;39.60
73692;BME280;61996;49.910;35.562;2023-04-25T03:10:19;98898.25;;;21.10;39.89
73692;BME280;61996;49.910;35.562;2023-04-25T03:13:22;98898.06;;;21.12;39.75
73692;BME280;61996;49.910;35.562;2023-04-25T03:16:25;98899.44;;;21.07;39.95
73692;BME280;61996;49.910;35.562;2023-04-25T03:19:28;98902.13;;;21.07;39.94
73692;BME280;61996;49.910;35.562;2023-04-25T03:22:31;98900.78;;;21.03;39.93
73692;BME280;61996;49.910;35.562;2023-04-25T03:25:35;98899.63;;;20.98;39.83
73692;BME280;61996;49.910;35.562;2023-04-25T03:28:38;98896.09;;;20.97;40.15
73692;BME280;61996;49.910;35.562;2023-04-25T03:31:41;98898.13;;;20.95;40.16
73692;BME280;61996;49.910;35.562;2023-04-25T03:34:44;98898.28;;;21.02;40.13
73692;BME280;61996;49.910;35.562;2023-04-25T03:37:47;98889.75;;;20.98;40.26
73692;BME280;61996;49.910;35.562;2023-04-25T03:40:51;98885.91;;;21.01;40.17
73692;BME280;61996;49.910;35.562;2023-04-25T03:43:54;98890.09;;;21.03;40.18
73692;BME280;61996;49.910;35.562;2023-04-25T03:46:57;98893.75;;;21.02;40.25
73692;BME280;61996;49.910;35.562;2023-04-25T03:50:00;98883.56;;;20.98;40.14
73692;BME280;61996;49.910;35.562;2023-04-25T03:53:04;98887.75;;;21.00;40.29
73692;BME280;61996;49.910;35.562;2023-04-25T03:56:08;98881.25;;;20.95;40.17
73692;BME280;61996;49.910;35.562;2023-04-25T03:59:11;98882.91;;;20.96;40.29
73692;BME280;61996;49.910;35.562;2023-04-25T04:02:14;98873.06;;;20.96;40.33
73692;BME280;61996;49.910;35.562;2023-04-25T04:05:17;98874.72;;;20.97;40.15
73692;BME280;61996;49.910;35.562;2023-04-25T04:08:20;98873.53;;;21.00;40.31
73692;BME280;61996;49.910;35.562;2023-04-25T04:11:24;98878.72;;;21.01;40.38
73692;BME280;61996;49.910;35.562;2023-04-25T04:14:27;98863.84;;;21.07;40.23
73692;BME280;61996;49.910;35.562;2023-04-25T04:17:30;98871.00;;;21.06;40.14
73692;BME280;61996;49.910;35.562;2023-04-25T04:20:33;98863.50;;;21.10;40.01
73692;BME280;61996;49.910;35.562;2023-04-25T04:23:36;98863.50;;;21.10;40.09
73692;BME280;61996;49.910;35.562;2023-04-25T04:26:41;98860.47;;;21.13;39.97
73692;BME280;61996;49.910;35.562;2023-04-25T04:29:46;98854.28;;;21.13;39.99
73692;BME280;61996;49.910;35.562;2023-04-25T04:32:49;98850.09;;;21.18;40.23
73692;BME280;61996;49.910;35.562;2023-04-25T04:35:52;98848.78;;;21.14;40.11
73692;BME280;61996;49.910;35.562;2023-04-25T04:38:57;98841.75;;;21.13;40.18
73692;BME280;61996;49.910;35.562;2023-04-25T04:42:04;98841.75;;;21.13;40.47
73692;BME280;61996;49.910;35.562;2023-04-25T04:45:07;98837.53;;;21.35;40.10
73692;BME280;61996;49.910;35.562;2023-04-25T04:48:10;98833.69;;;21.38;39.79
73692;BME280;61996;49.910;35.562;2023-04-25T04:51:16;98833.31;;;21.41;39.85
73692;BME280;61996;49.910;35.562;2023-04-25T04:54:19;98825.97;;;21.43;39.83
73692;BME280;61996;49.910;35.562;2023-04-25T04:57:24;98825.97;;;21.43;39.92
73692;BME280;61996;49.910;35.562;2023-04-25T05:00:27;98825.28;;;21.49;39.57
73692;BME280;61996;49.910;35.562;2023-04-25T05:03:31;98835.13;;;21.48;39.60
73692;BME280;61996;49.910;35.562;2023-04-25T05:06:33;98822.59;;;21.49;39.75
73692;BME280;61996;49.910;35.562;2023-04-25T05:09:36;98823.91;;;21.53;39.77
73692;BME280;61996;49.910;35.562;2023-04-25T05:12:40;98821.22;;;21.53;39.51
73692;BME280;61996;49.910;35.562;2023-04-25T05:15:43;98828.72;;;21.57;39.37
73692;BME280;61996;49.910;35.562;2023-04-25T05:18:46;98817.34;;;21.55;39.71
73692;BME280;61996;49.910;35.562;2023-04-25T05:21:49;98821.88;;;21.55;39.76
73692;BME280;61996;49.910;35.562;2023-04-25T05:24:52;98818.03;;;21.57;39.42
73692;BME280;61996;49.910;35.562;2023-04-25T05:27:58;98818.50;;;21.61;39.60
73692;BME280;61996;49.910;35.562;2023-04-25T05:31:00;98812.81;;;21.64;39.58
73692;BME280;61996;49.910;35.562;2023-04-25T05:34:03;98813.63;;;21.65;39.29
73692;BME280;61996;49.910;35.562;2023-04-25T05:37:06;98819.47;;;21.68;39.47
73692;BME280;61996;49.910;35.562;2023-04-25T05:40:09;98813.47;;;21.66;39.53
73692;BME280;61996;49.910;35.562;2023-04-25T05:43:13;98823.78;;;21.69;39.25
73692;BME280;61996;49.910;35.562;2023-04-25T05:46:16;98815.44;;;21.72;39.45
73692;BME280;61996;49.910;35.562;2023-04-25T05:49:19;98817.63;;;21.69;39.30
73692;BME280;61996;49.910;35.562;2023-04-25T05:52:22;98810.25;;;21.71;39.36
73692;BME280;61996;49.910;35.562;2023-04-25T05:55:25;98808.75;;;21.68;39.53
73692;BME280;61996;49.910;35.562;2023-04-25T05:58:29;98805.94;;;21.70;39.43
73692;BME280;61996;49.910;35.562;2023-04-25T06:01:32;98803.25;;;21.70;39.56
73692;BME280;61996;49.910;35.562;2023-04-25T06:04:35;98802.88;;;21.73;39.51
73692;BME280;61996;49.910;35.562;2023-04-25T06:07:38;98803.25;;;21.70;39.60
73692;BME280;61996;49.910;35.562;2023-04-25T06:10:41;98800.38;;;21.71;39.35
73692;BME280;61996;49.910;35.562;2023-04-25T06:13:45;98801.41;;;21.70;39.57
73692;BME280;61996;49.910;35.562;2023-04-25T06:16:48;98795.75;;;21.65;39.66
73692;BME280;61996;49.910;35.562;2023-04-25T06:19:51;98798.88;;;21.69;39.61
73692;BME280;61996;49.910;35.562;2023-04-25T06:22:56;98792.38;;;21.71;39.56
73692;BME280;61996;49.910;35.562;2023-04-25T06:25:58;98789.50;;;21.73;39.66
73692;BME280;61996;49.910;35.562;2023-04-25T06:29:03;98790.69;;;21.70;39.65
73692;BME280;61996;49.910;35.562;2023-04-25T06:32:05;98789.88;;;21.70;39.70
73692;BME280;61996;49.910;35.562;2023-04-25T06:35:08;98791.53;;;21.71;39.62
73692;BME280;61996;49.910;35.562;2023-04-25T06:38:11;98789.31;;;21.74;39.33
73692;BME280;61996;49.910;35.562;2023-04-25T06:41:14;98784.50;;;21.70;39.62
73692;BME280;61996;49.910;35.562;2023-04-25T06:44:18;98791.03;;;21.67;39.54
73692;BME280;61996;49.910;35.562;2023-04-25T06:47:21;98786.69;;;21.66;39.85
73692;BME280;61996;49.910;35.562;2023-04-25T06:50:24;98790.03;;;21.68;39.92
73692;BME280;61996;49.910;35.562;2023-04-25T06:53:27;98797.72;;;21.71;39.69
73692;BME280;61996;49.910;35.562;2023-04-25T06:56:29;98799.06;;;21.67;39.91
73692;BME280;61996;49.910;35.562;2023-04-25T06:59:34;98799.72;;;21.69;39.91
73692;BME280;61996;49.910;35.562;2023-04-25T07:02:36;98803.53;;;21.75;39.82
73692;BME280;61996;49.910;35.562;2023-04-25T07:05:40;98793.84;;;21.74;39.75
73692;BME280;61996;49.910;35.562;2023-04-25T07:08:42;98796.19;;;21.77;39.72
73692;BME280;61996;49.910;35.562;2023-04-25T07:11:45;98798.00;;;21.76;39.70
73692;BME280;61996;49.910;35.562;2023-04-25T07:14:49;98800.66;;;21.76;39.56
73692;BME280;61996;49.910;35.562;2023-04-25T07:17:52;98797.00;;;21.77;39.43
73692;BME280;61996;49.910;35.562;2023-04-25T07:20:55;98802.34;;;21.77;39.69
73692;BME280;61996;49.910;35.562;2023-04-25T07:23:58;98800.97;;;21.81;39.69
73692;BME280;61996;49.910;35.562;2023-04-25T07:27:01;98803.84;;;21.80;39.47
73692;BME280;61996;49.910;35.562;2023-04-25T07:30:06;98803.66;;;21.81;39.61
73692;BME280;61996;49.910;35.562;2023-04-25T07:33:09;98800.31;;;21.79;39.62
73692;BME280;61996;49.910;35.562;2023-04-25T07:36:12;98797.47;;;21.81;39.45
73692;BME280;61996;49.910;35.562;2023-04-25T07:39:16;98798.28;;;21.81;39.58
73692;BME280;61996;49.910;35.562;2023-04-25T07:42:19;98793.44;;;21.85;39.46
73692;BME280;61996;49.910;35.562;2023-04-25T07:45:24;98798.59;;;21.86;39.53
73692;BME280;61996;49.910;35.562;2023-04-25T07:48:26;98795.75;;;21.88;39.69
73692;BME280;61996;49.910;35.562;2023-04-25T07:51:29;98793.91;;;21.88;39.37
73692;BME280;61996;49.910;35.562;2023-04-25T07:54:32;98791.41;;;21.87;39.64
73692;BME280;61996;49.910;35.562;2023-04-25T07:57:35;98787.91;;;21.86;39.75
73692;BME280;61996;49.910;35.562;2023-04-25T08:00:41;98789.22;;;21.91;39.62
73692;BME280;61996;49.910;35.562;2023-04-25T08:03:45;98788.53;;;21.88;39.50
73692;BME280;61996;49.910;35.562;2023-04-25T08:06:48;98795.94;;;21.86;39.83
73692;BME280;61996;49.910;35.562;2023-04-25T08:09:51;98786.06;;;21.87;39.66
73692;BME280;61996;49.910;35.562;2023-04-25T08:12:54;98781.53;;;21.87;39.64
73692;BME280;61996;49.910;35.562;2023-04-25T08:15:58;98791.22;;;21.88;39.49
73692;BME280;61996;49.910;35.562;2023-04-25T08:19:02;98785.69;;;21.90;39.60
73692;BME280;61996;49.910;35.562;2023-04-25T08:22:05;98780.63;;;21.95;39.71
73692;BME280;61996;49.910;35.562;2023-04-25T08:25:08;98777.78;;;21.97;39.69
73692;BME280;61996;49.910;35.562;2023-04-25T08:28:11;98762.38;;;21.99;39.61
73692;BME280;61996;49.910;35.562;2023-04-25T08:31:15;98761.38;;;22.00;39.68
73692;BME280;61996;49.910;35.562;2023-04-25T08:34:19;98763.03;;;22.01;39.55
73692;BME280;61996;49.910;35.562;2023-04-25T08:37:22;98762.66;;;22.04;39.36
73692;BME280;61996;49.910;35.562;2023-04-25T08:40:26;98756.00;;;22.00;39.54
73692;BME280;61996;49.910;35.562;2023-04-25T08:43:31;98756.66;;;22.02;39.60
73692;BME280;61996;49.910;35.562;2023-04-25T08:46:36;98756.31;;;22.05;39.40
73692;BME280;61996;49.910;35.562;2023-04-25T08:49:40;98752.63;;;22.06;39.48
73692;BME280;61996;49.910;35.562;2023-04-25T08:52:44;98756.59;;;22.10;39.71
73692;BME280;61996;49.910;35.562;2023-04-25T08:55:48;98745.38;;;22.14;39.33
73692;BME280;61996;49.910;35.562;2023-04-25T08:58:51;98739.63;;;22.17;39.58
73692;BME280;61996;49.910;35.562;2023-04-25T09:01:56;98743.31;;;22.16;40.73
73692;BME280;61996;49.910;35.562;2023-04-25T09:04:59;98741.78;;;22.22;39.96
73692;BME280;61996;49.910;35.562;2023-04-25T09:08:02;98740.19;;;22.13;40.99
73692;BME280;61996;49.910;35.562;2023-04-25T09:11:04;98737.63;;;22.20;40.45
73692;BME280;61996;49.910;35.562;2023-04-25T09:14:11;98726.91;;;22.20;40.46
73692;BME280;61996;49.910;35.562;2023-04-25T09:17:15;98729.28;;;22.14;40.28
73692;BME280;61996;49.910;35.562;2023-04-25T09:20:20;98729.28;;;22.14;40.25
73692;BME280;61996;49.910;35.562;2023-04-25T09:23:23;98725.59;;;22.15;40.14
73692;BME280;61996;49.910;35.562;2023-04-25T09:26:26;98727.94;;;22.19;40.13
73692;BME280;61996;49.910;35.562;2023-04-25T09:29:29;98718.88;;;22.20;39.53
73692;BME280;61996;49.910;35.562;2023-04-25T09:32:33;98722.56;;;22.19;39.86
73692;BME280;61996;49.910;35.562;2023-04-25T09:35:37;98716.19;;;22.20;39.73
73692;BME280;61996;49.910;35.562;2023-04-25T09:38:41;98722.09;;;22.15;40.01
73692;BME280;61996;49.910;35.562;2023-04-25T09:41:44;98716.63;;;22.08;39.78
73692;BME280;61996;49.910;35.562;2023-04-25T09:44:47;98722.38;;;22.20;39.64
73692;BME280;61996;49.910;35.562;2023-04-25T09:47:51;98710.84;;;22.20;39.67
73692;BME280;61996;49.910;35.562;2023-04-25T09:51:06;98710.75;;;22.13;39.89
73692;BME280;61996;49.910;35.562;2023-04-25T09:54:08;98712.84;;;22.17;39.53
73692;BME280;61996;49.910;35.562;2023-04-25T09:57:13;98716.34;;;22.18;39.78
73692;BME280;61996;49.910;35.562;2023-04-25T10:00:16;98707.34;;;22.19;39.42
73692;BME280;61996;49.910;35.562;2023-04-25T10:03:21;98703.63;;;22.20;39.78
73692;BME280;61996;49.910;35.562;2023-04-25T10:06:25;98702.53;;;22.14;39.97
73692;BME280;61996;49.910;35.562;2023-04-25T10:09:28;98702.97;;;22.18;39.72
73692;BME280;61996;49.910;35.562;2023-04-25T10:12:33;98699.13;;;22.21;39.40
73692;BME280;61996;49.910;35.562;2023-04-25T10:15:36;98701.59;;;22.22;39.21
73692;BME280;61996;49.910;35.562;2023-04-25T10:18:42;98703.16;;;22.16;39.69
73692;BME280;61996;49.910;35.562;2023-04-25T10:21:46;98694.41;;;22.23;39.38
73692;BME280;61996;49.910;35.562;2023-04-25T10:24:50;98690.88;;;22.22;39.47
73692;BME280;61996;49.910;35.562;2023-04-25T10:27:54;98686.56;;;22.21;39.41
73692;BME280;61996;49.910;35.562;2023-04-25T10:30:57;98682.47;;;22.25;39.38
73692;BME280;61996;49.910;35.562;2023-04-25T10:34:02;98679.63;;;22.27;39.15
73692;BME280;61996;49.910;35.562;2023-04-25T10:37:05;98675.56;;;22.31;39.02
73692;BME280;61996;49.910;35.562;2023-04-25T10:40:08;98678.81;;;22.26;39.04
73692;BME280;61996;49.910;35.562;2023-04-25T10:46:33;98670.28;;;22.23;39.26
73692;BME280;61996;49.910;35.562;2023-04-25T10:49:41;98673.81;;;22.23;39.00
73692;BME280;61996;49.910;35.562;2023-04-25T10:52:44;98680.00;;;22.24;38.98
73692;BME280;61996;49.910;35.562;2023-04-25T10:55:49;98668.94;;;22.27;39.15
73692;BME280;61996;49.910;35.562;2023-04-25T10:59:02;98664.22;;;22.29;38.55
73692;BME280;61996;49.910;35.562;2023-04-25T11:02:11;98658.84;;;22.29;38.82
73692;BME280;61996;49.910;35.562;2023-04-25T11:05:26;98663.56;;;22.27;39.18
73692;BME280;61996;49.910;35.562;2023-04-25T11:08:36;98659.88;;;22.28;39.21
73692;BME280;61996;49.910;35.562;2023-04-25T11:11:43;98652.66;;;22.28;38.91
73692;BME280;61996;49.910;35.562;2023-04-25T11:14:58;98646.28;;;22.29;38.82
73692;BME280;61996;49.910;35.562;2023-04-25T11:18:02;98652.84;;;22.27;38.88
73692;BME280;61996;49.910;35.562;2023-04-25T11:21:07;98647.94;;;22.30;38.98
73692;BME280;61996;49.910;35.562;2023-04-25T11:24:09;98654.59;;;22.34;38.60
73692;BME280;61996;49.910;35.562;2023-04-25T11:27:13;98640.75;;;22.31;38.86
73692;BME280;61996;49.910;35.562;2023-04-25T11:30:15;98646.09;;;22.31;38.99
73692;BME280;61996;49.910;35.562;2023-04-25T11:33:22;98643.25;;;22.32;38.56
73692;BME280;61996;49.910;35.562;2023-04-25T11:36:28;98635.56;;;22.29;38.81
73692;BME280;61996;49.910;35.562;2023-04-25T11:39:32;98630.22;;;22.29;38.85
73692;BME280;61996;49.910;35.562;2023-04-25T11:42:36;98633.53;;;22.31;38.63
73692;BME280;61996;49.910;35.562;2023-04-25T11:45:39;98633.53;;;22.31;38.89
73692;BME280;61996;49.910;35.562;2023-04-25T11:48:42;98627.44;;;22.37;38.60
73692;BME280;61996;49.910;35.562;2023-04-25T11:51:47;98633.19;;;22.34;38.45
73692;BME280;61996;49.910;35.562;2023-04-25T11:54:50;98624.50;;;22.32;38.75
73692;BME280;61996;49.910;35.562;2023-04-25T11:57:53;98618.13;;;22.33;38.59
73692;BME280;61996;49.910;35.562;2023-04-25T12:00:56;98605.56;;;22.34;38.65
73692;BME280;61996;49.910;35.562;2023-04-25T12:04:09;98608.69;;;22.37;38.63
73692;BME280;61996;49.910;35.562;2023-04-25T12:07:14;98607.03;;;22.36;38.87
73692;BME280;61996;49.910;35.562;2023-04-25T12:10:17;98609.72;;;22.36;38.72
73692;BME280;61996;49.910;35.562;2023-04-25T12:13:21;98606.47;;;22.41;38.21
73692;BME280;61996;49.910;35.562;2023-04-25T12:16:24;98597.88;;;22.46;38.09
73692;BME280;61996;49.910;35.562;2023-04-25T12:22:52;98598.69;;;22.46;38.25
73692;BME280;61996;49.910;35.562;2023-04-25T12:25:54;98603.59;;;22.42;38.42
73692;BME280;61996;49.910;35.562;2023-04-25T12:28:57;98597.22;;;22.43;38.48
73692;BME280;61996;49.910;35.562;2023-04-25T12:32:01;98594.34;;;22.45;38.51
73692;BME280;61996;49.910;35.562;2023-04-25T12:35:05;98593.09;;;22.41;38.72
73692;BME280;61996;49.910;35.562;2023-04-25T12:38:09;98578.28;;;22.45;38.80
73692;BME280;61996;49.910;35.562;2023-04-25T12:41:12;98585.97;;;22.48;38.58
73692;BME280;61996;49.910;35.562;2023-04-25T12:44:14;98582.91;;;22.51;38.27
73692;BME280;61996;49.910;35.562;2023-04-25T12:47:17;98582.69;;;22.53;38.59
73692;BME280;61996;49.910;35.562;2023-04-25T12:50:20;98574.03;;;22.51;38.46
73692;BME280;61996;49.910;35.562;2023-04-25T12:53:24;98568.88;;;22.49;38.43
73692;BME280;61996;49.910;35.562;2023-04-25T12:56:27;98569.97;;;22.55;38.34
73692;BME280;61996;49.910;35.562;2023-04-25T12:59:30;98560.63;;;22.51;38.49
73692;BME280;61996;49.910;35.562;2023-04-25T13:02:33;98568.31;;;22.54;38.05
73692;BME280;61996;49.910;35.562;2023-04-25T13:05:36;98563.19;;;22.59;37.92
73692;BME280;61996;49.910;35.562;2023-04-25T13:08:40;98570.78;;;22.55;38.19
73692;BME280;61996;49.910;35.562;2023-04-25T13:11:43;98561.47;;;22.51;38.78
73692;BME280;61996;49.910;35.562;2023-04-25T13:14:47;98561.09;;;22.54;38.75
73692;BME280;61996;49.910;35.562;2023-04-25T13:17:50;98562.16;;;22.60;37.73
73692;BME280;61996;49.910;35.562;2023-04-25T13:20:53;98567.38;;;22.61;38.09
73692;BME280;61996;49.910;35.562;2023-04-25T13:23:57;98563.84;;;22.61;37.71
73692;BME280;61996;49.910;35.562;2023-04-25T13:27:00;98566.91;;;22.58;38.29
73692;BME280;61996;49.910;35.562;2023-04-25T13:30:03;98552.88;;;22.56;38.12
73692;BME280;61996;49.910;35.562;2023-04-25T13:33:08;98557.00;;;22.58;37.67
73692;BME280;61996;49.910;35.562;2023-04-25T13:36:19;98553.13;;;22.61;37.66
73692;BME280;61996;49.910;35.562;2023-04-25T13:39:26;98555.44;;;22.64;37.60
73692;BME280;61996;49.910;35.562;2023-04-25T13:42:29;98549.03;;;22.65;37.43
73692;BME280;61996;49.910;35.562;2023-04-25T13:45:32;98545.53;;;22.64;37.48
73692;BME280;61996;49.910;35.562;2023-04-25T13:48:35;98544.91;;;22.62;37.45
73692;BME280;61996;49.910;35.562;2023-04-25T13:51:38;98542.66;;;22.66;37.30
73692;BME280;61996;49.910;35.562;2023-04-25T13:54:42;98544.50;;;22.65;37.68
73692;BME280;61996;49.910;35.562;2023-04-25T13:57:44;98543.94;;;22.70;37.44
73692;BME280;61996;49.910;35.562;2023-04-25T14:00:53;98541.84;;;22.65;37.50
73692;BME280;61996;49.910;35.562;2023-04-25T14:03:57;98547.03;;;22.67;37.14
73692;BME280;61996;49.910;35.562;2023-04-25T14:07:00;98541.84;;;22.65;37.14
73692;BME280;61996;49.910;35.562;2023-04-25T14:10:05;98544.50;;;22.65;37.40
73692;BME280;61996;49.910;35.562;2023-04-25T14:13:08;98540.56;;;22.61;37.34
73692;BME280;61996;49.910;35.562;2023-04-25T14:16:11;98536.41;;;22.59;37.59
73692;BME280;61996;49.910;35.562;2023-04-25T14:19:14;98533.56;;;22.60;37.43
73692;BME280;61996;49.910;35.562;2023-04-25T14:22:17;98527.84;;;22.49;38.20
73692;BME280;61996;49.910;35.562;2023-04-25T14:25:22;98523.31;;;22.49;38.21
73692;BME280;61996;49.910;35.562;2023-04-25T14:28:25;98523.91;;;22.30;38.15
73692;BME280;61996;49.910;35.562;2023-04-25T14:31:28;98520.97;;;21.80;39.79
73692;BME280;61996;49.910;35.562;2023-04-25T14:34:31;98518.59;;;21.71;39.46
73692;BME280;61996;49.910;35.562;2023-04-25T14:37:33;98527.34;;;21.65;40.61
73692;BME280;61996;49.910;35.562;2023-04-25T14:40:37;98535.50;;;21.48;39.77
73692;BME280;61996;49.910;35.562;2023-04-25T14:43:40;98524.56;;;21.43;39.79
73692;BME280;61996;49.910;35.562;2023-04-25T14:46:43;98527.59;;;21.17;40.30
73692;BME280;61996;49.910;35.562;2023-04-25T14:49:48;98540.88;;;21.25;40.06
73692;BME280;61996;49.910;35.562;2023-04-25T14:52:55;98569.50;;;21.02;40.37
73692;BME280;61996;49.910;35.562;2023-04-25T14:56:03;98563.25;;;20.87;42.14
73692;BME280;61996;49.910;35.562;2023-04-25T14:59:06;98561.97;;;20.43;43.42
73692;BME280;61996;49.910;35.562;2023-04-25T15:02:10;98576.81;;;21.08;42.56
73692;BME280;61996;49.910;35.562;2023-04-25T15:05:13;98570.84;;;21.44;41.70
73692;BME280;61996;49.910;35.562;2023-04-25T15:08:16;98575.09;;;21.53;41.96
73692;BME280;61996;49.910;35.562;2023-04-25T15:11:20;98579.00;;;21.65;41.83
73692;BME280;61996;49.910;35.562;2023-04-25T15:14:23;98580.38;;;21.61;41.78
73692;BME280;61996;49.910;35.562;2023-04-25T15:17:26;98578.81;;;21.52;42.17
73692;BME280;61996;49.910;35.562;2023-04-25T15:20:32;98574.81;;;21.48;42.04
73692;BME280;61996;49.910;35.562;2023-04-25T15:23:35;98579.53;;;20.38;44.83
73692;BME280;61996;49.910;35.562;2023-04-25T15:26:39;98576.59;;;20.16;45.39
73692;BME280;61996;49.910;35.562;2023-04-25T15:29:42;98580.41;;;20.22;45.13
73692;BME280;61996;49.910;35.562;2023-04-25T15:32:45;98582.03;;;19.92;46.09
73692;BME280;61996;49.910;35.562;2023-04-25T15:35:48;98579.66;;;20.05;46.14
73692;BME280;61996;49.910;35.562;2023-04-25T15:38:50;98573.00;;;21.02;43.37
73692;BME280;61996;49.910;35.562;2023-04-25T15:41:55;98566.50;;;21.28;42.95
73692;BME280;61996;49.910;35.562;2023-04-25T15:44:59;98558.66;;;21.41;42.74
73692;BME280;61996;49.910;35.562;2023-04-25T15:48:02;98542.78;;;21.40;42.64
73692;BME280;61996;49.910;35.562;2023-04-25T15:51:05;98525.63;;;21.34;41.76
73692;BME280;61996;49.910;35.562;2023-04-25T15:54:08;98523.00;;;21.49;41.98
73692;BME280;61996;49.910;35.562;2023-04-25T15:57:12;98519.13;;;21.51;42.03
73692;BME280;61996;49.910;35.562;2023-04-25T16:00:16;98517.28;;;21.52;41.97
73692;BME280;61996;49.910;35.562;2023-04-25T16:03:19;98508.97;;;21.47;41.35
73692;BME280;61996;49.910;35.562;2023-04-25T16:06:23;98506.94;;;21.49;42.11